Time;durP1;ratioP1;P1;durP2;ratioP2;P2;SDS_P1;SDS_P2;PMS_P1;PMS_P2;Temp;Humidity;BMP_temperature;BMP_pressure;BME280_temperature;BME280_humidity;BME280_pressure;Samples;Min_cycle;Max_cycle;Signal;HPM_P1;HPM_P2
2021/12/02 00:00:45;;;;;;;6.53;1.30;;;6.60;99.90;;;;;;5108121;28;20445;-57
2021/12/02 00:03:12;;;;;;;0.90;0.60;;;6.60;99.90;;;;;;5107186;28;20449;-58
2021/12/02 00:05:39;;;;;;;0.80;0.60;;;6.50;99.90;;;;;;5107923;28;20441;-57
2021/12/02 00:08:07;;;;;;;0.90;0.70;;;6.50;99.90;;;;;;5108643;28;20458;-54
2021/12/02 00:10:35;;;;;;;1.13;0.70;;;6.50;99.90;;;;;;5108317;28;20438;-56
2021/12/02 00:13:02;;;;;;;0.90;0.70;;;6.50;99.90;;;;;;5107507;28;20484;-57
2021/12/02 00:15:36;;;;;;;1.10;0.83;;;6.50;99.90;;;;;;5106870;28;20445;-56
2021/12/02 00:18:31;;;;;;;1.97;0.80;;;6.50;99.90;;;;;;5107030;28;20517;-58
2021/12/02 00:21:05;;;;;;;0.90;0.60;;;6.50;99.90;;;;;;5108478;28;20557;-52
2021/12/02 00:23:38;;;;;;;1.40;0.77;;;6.50;99.90;;;;;;5108147;28;20498;-57
2021/12/02 00:26:10;;;;;;;1.00;0.80;;;6.50;99.90;;;;;;5108497;28;20982;-59
2021/12/02 00:28:38;;;;;;;0.90;0.60;;;6.50;99.90;;;;;;5107739;28;20425;-57
2021/12/02 00:31:11;;;;;;;0.90;0.77;;;6.50;99.90;;;;;;5108346;28;20492;-57
2021/12/02 00:33:42;;;;;;;0.80;0.60;;;6.40;99.90;;;;;;5108545;28;20465;-57
2021/12/02 00:36:09;;;;;;;0.80;0.50;;;6.30;99.90;;;;;;5109005;28;20488;-56
2021/12/02 00:38:35;;;;;;;0.80;0.50;;;6.30;99.90;;;;;;5109223;28;20475;-58
2021/12/02 00:41:02;;;;;;;0.80;0.60;;;6.30;99.90;;;;;;5107675;28;20438;-57
2021/12/02 00:43:30;;;;;;;0.80;0.50;;;6.20;99.90;;;;;;5106879;28;20475;-58
2021/12/02 00:45:56;;;;;;;2.50;0.63;;;6.30;99.90;;;;;;5106253;28;20449;-57
2021/12/02 00:48:24;;;;;;;3.43;0.67;;;6.30;99.90;;;;;;5106387;28;20522;-58
2021/12/02 00:50:52;;;;;;;7.60;2.30;;;6.30;99.90;;;;;;5106874;28;20937;-53
2021/12/02 00:53:21;;;;;;;1.00;0.57;;;6.30;99.90;;;;;;5106091;28;20803;-58
2021/12/02 00:55:49;;;;;;;2.17;1.50;;;6.40;99.90;;;;;;5107861;28;20536;-54
2021/12/02 00:58:19;;;;;;;0.90;0.70;;;6.40;99.90;;;;;;5108800;28;20437;-57
2021/12/02 01:00:49;;;;;;;0.80;0.60;;;6.20;99.90;;;;;;5111229;28;20473;-55
2021/12/02 01:03:20;;;;;;;0.80;0.57;;;5.90;99.90;;;;;;5111488;28;20417;-56
2021/12/02 01:05:49;;;;;;;1.20;0.70;;;5.70;99.90;;;;;;5112089;28;20489;-56
2021/12/02 01:08:16;;;;;;;0.93;0.60;;;5.40;99.90;;;;;;5112177;28;20438;-57
2021/12/02 01:10:42;;;;;;;0.90;0.60;;;5.30;99.90;;;;;;5110156;28;20459;-57
2021/12/02 01:13:09;;;;;;;0.90;0.57;;;5.20;99.90;;;;;;5109581;28;20520;-55
2021/12/02 01:15:36;;;;;;;0.90;0.60;;;5.00;99.90;;;;;;5110943;28;20445;-55
2021/12/02 01:18:03;;;;;;;1.00;0.60;;;4.90;99.90;;;;;;5112187;28;20453;-50
2021/12/02 01:20:32;;;;;;;4.97;0.80;;;4.60;99.90;;;;;;5112412;28;20455;-57
2021/12/02 01:23:01;;;;;;;0.80;0.50;;;4.50;99.90;;;;;;5112860;28;21113;-52
2021/12/02 01:25:30;;;;;;;0.80;0.53;;;4.50;99.90;;;;;;5116305;28;20539;-56
2021/12/02 01:27:58;;;;;;;0.80;0.50;;;4.40;99.90;;;;;;5117084;28;20442;-54
2021/12/02 01:30:26;;;;;;;9.03;2.10;;;4.30;99.90;;;;;;5117924;28;20461;-54
2021/12/02 01:32:55;;;;;;;0.80;0.50;;;4.20;99.90;;;;;;5117355;28;20472;-52
2021/12/02 01:35:25;;;;;;;2.13;1.00;;;4.20;99.90;;;;;;5117660;28;20475;-54
2021/12/02 01:37:54;;;;;;;0.80;0.50;;;4.10;99.90;;;;;;5117229;28;20418;-55
2021/12/02 01:40:22;;;;;;;0.80;0.50;;;4.10;99.90;;;;;;5117180;28;20437;-56
2021/12/02 01:42:54;;;;;;;0.80;0.50;;;4.20;99.90;;;;;;5117041;28;20457;-57
2021/12/02 01:45:24;;;;;;;0.83;0.60;;;4.10;99.90;;;;;;5117463;28;20467;-54
2021/12/02 01:47:53;;;;;;;0.83;0.57;;;4.20;99.90;;;;;;5116595;28;20792;-57
2021/12/02 01:50:22;;;;;;;0.80;0.50;;;4.20;99.90;;;;;;5116576;28;20442;-55
2021/12/02 01:52:50;;;;;;;0.80;0.50;;;4.20;99.90;;;;;;5116832;28;20545;-55
2021/12/02 01:55:18;;;;;;;0.90;0.50;;;4.20;99.90;;;;;;5116210;28;20465;-56
2021/12/02 01:57:54;;;;;;;0.80;0.50;;;4.20;99.90;;;;;;5116140;28;20442;-55
2021/12/02 02:00:21;;;;;;;0.80;0.60;;;4.30;99.90;;;;;;5116999;28;20441;-55
2021/12/02 02:02:49;;;;;;;0.80;0.50;;;4.30;99.90;;;;;;5115707;28;20476;-58
2021/12/02 02:05:17;;;;;;;0.80;0.53;;;4.30;99.90;;;;;;5115479;28;20441;-57
2021/12/02 02:07:59;;;;;;;1.00;0.60;;;4.30;99.90;;;;;;5115430;28;20489;-58
2021/12/02 02:10:27;;;;;;;0.80;0.50;;;4.40;99.90;;;;;;5115290;28;20862;-57
2021/12/02 02:12:58;;;;;;;5.13;0.60;;;4.40;99.90;;;;;;5115930;28;20542;-59
2021/12/02 02:15:25;;;;;;;0.80;0.50;;;4.50;99.90;;;;;;5114817;28;20441;-58
2021/12/02 02:17:55;;;;;;;0.80;0.50;;;4.50;99.90;;;;;;5115382;28;20434;-57
2021/12/02 02:20:25;;;;;;;1.00;0.60;;;4.50;99.90;;;;;;5115426;28;20430;-53
2021/12/02 02:22:52;;;;;;;2.33;0.70;;;4.50;99.90;;;;;;5114111;28;20445;-58
2021/12/02 02:25:19;;;;;;;0.80;0.50;;;4.50;99.90;;;;;;5114509;28;20453;-58
2021/12/02 02:27:46;;;;;;;0.80;0.50;;;4.50;99.90;;;;;;5115535;28;20469;-56
2021/12/02 02:30:13;;;;;;;0.80;0.50;;;4.40;99.90;;;;;;5114191;28;20441;-50
2021/12/02 02:32:40;;;;;;;0.80;0.50;;;4.50;99.90;;;;;;5114494;28;20507;-51
2021/12/02 02:35:08;;;;;;;0.80;0.50;;;4.40;99.90;;;;;;5114154;28;20441;-54
2021/12/02 02:37:37;;;;;;;0.80;0.50;;;4.40;99.90;;;;;;5115414;28;20503;-57
2021/12/02 02:40:08;;;;;;;0.80;0.50;;;4.40;99.90;;;;;;5115826;28;20442;-57
2021/12/02 02:42:35;;;;;;;1.50;0.80;;;4.40;99.90;;;;;;5115374;28;20448;-52
2021/12/02 02:45:03;;;;;;;0.80;0.50;;;4.40;99.90;;;;;;5114696;28;20497;-56
2021/12/02 02:47:30;;;;;;;1.00;0.50;;;4.40;99.90;;;;;;5114764;28;20471;-53
2021/12/02 02:49:57;;;;;;;1.87;0.70;;;4.40;99.90;;;;;;5113031;28;20461;-55
2021/12/02 02:52:23;;;;;;;0.90;0.60;;;4.40;99.90;;;;;;5114282;28;20562;-57
2021/12/02 02:54:52;;;;;;;0.80;0.50;;;4.50;99.90;;;;;;5114390;28;20505;-57
2021/12/02 02:57:22;;;;;;;0.80;0.50;;;4.50;99.90;;;;;;5114620;28;20445;-54
2021/12/02 03:00:03;;;;;;;0.80;0.60;;;4.50;99.90;;;;;;5113168;28;20428;-56
2021/12/02 03:02:35;;;;;;;0.80;0.50;;;4.50;99.90;;;;;;5114980;28;20461;-57
2021/12/02 03:05:10;;;;;;;0.83;0.53;;;4.50;99.90;;;;;;5114330;28;20434;-54
2021/12/02 03:07:41;;;;;;;0.80;0.50;;;4.50;99.90;;;;;;5112053;28;20460;-57
2021/12/02 03:10:16;;;;;;;0.80;0.50;;;4.60;99.90;;;;;;5112165;28;20440;-57
2021/12/02 03:12:54;;;;;;;1.33;0.73;;;4.60;99.90;;;;;;5112728;28;20829;-56
2021/12/02 03:18:06;;;;;;;5.60;0.70;;;4.60;99.90;;;;;;5113259;28;20472;-58
2021/12/02 03:20:33;;;;;;;4.70;0.90;;;4.60;99.90;;;;;;5113128;28;20465;-57
2021/12/02 03:23:01;;;;;;;0.80;0.60;;;4.60;99.90;;;;;;5113851;28;20449;-56
2021/12/02 03:25:29;;;;;;;1.33;0.70;;;4.50;99.90;;;;;;5113072;28;20437;-57
2021/12/02 03:27:56;;;;;;;0.80;0.50;;;4.50;99.90;;;;;;5114272;28;20429;-54
2021/12/02 03:30:23;;;;;;;0.87;0.70;;;4.50;99.90;;;;;;5114511;28;20458;-56
2021/12/02 03:32:49;;;;;;;2.60;0.70;;;4.50;99.90;;;;;;5113387;28;20514;-55
2021/12/02 03:35:23;;;;;;;0.90;0.70;;;4.50;99.90;;;;;;5113763;28;20864;-57
2021/12/02 03:37:49;;;;;;;0.87;0.60;;;4.50;99.90;;;;;;5114184;28;20488;-56
2021/12/02 03:40:16;;;;;;;1.63;1.03;;;4.40;99.90;;;;;;5114798;28;20426;-55
2021/12/02 03:42:50;;;;;;;0.97;0.63;;;4.50;99.90;;;;;;5114101;28;20445;-51
2021/12/02 03:45:18;;;;;;;2.37;0.80;;;4.50;99.90;;;;;;5113254;28;20457;-57
2021/12/02 03:47:45;;;;;;;1.87;0.73;;;4.50;99.90;;;;;;5113813;28;20445;-58
2021/12/02 03:50:12;;;;;;;1.10;0.70;;;4.50;99.90;;;;;;5114335;28;20457;-56
2021/12/02 03:52:38;;;;;;;0.80;0.50;;;4.50;99.90;;;;;;5114345;28;20467;-56
2021/12/02 03:55:06;;;;;;;3.60;2.43;;;4.50;99.90;;;;;;5114304;28;20454;-57
2021/12/02 03:57:32;;;;;;;1.17;0.63;;;4.50;99.90;;;;;;5113911;28;20441;-57
2021/12/02 04:00:02;;;;;;;0.80;0.50;;;4.50;99.90;;;;;;5114336;28;20479;-57
2021/12/02 04:02:29;;;;;;;0.80;0.50;;;4.50;99.90;;;;;;5114090;28;20487;-53
2021/12/02 04:04:55;;;;;;;0.80;0.50;;;4.40;99.90;;;;;;5113872;28;20467;-52
2021/12/02 04:07:25;;;;;;;0.90;0.60;;;4.40;99.90;;;;;;5113630;28;20438;-56
2021/12/02 04:09:53;;;;;;;0.80;0.57;;;4.40;99.90;;;;;;5114449;28;20504;-56
2021/12/02 04:12:24;;;;;;;0.80;0.50;;;4.40;99.90;;;;;;5113989;28;20901;-57
2021/12/02 04:14:55;;;;;;;1.17;0.70;;;4.30;99.90;;;;;;5114197;28;20481;-57
2021/12/02 04:17:40;;;;;;;0.90;0.73;;;4.30;99.90;;;;;;5114586;28;20481;-52
2021/12/02 04:20:11;;;;;;;1.67;0.90;;;4.30;99.90;;;;;;5113968;28;20457;-56
2021/12/02 04:22:39;;;;;;;1.30;0.70;;;4.30;99.90;;;;;;5113359;28;20441;-55
2021/12/02 04:25:08;;;;;;;7.70;0.80;;;4.30;99.90;;;;;;5114385;28;20473;-55
2021/12/02 04:27:35;;;;;;;0.93;0.80;;;4.30;99.90;;;;;;5113768;28;20457;-56
2021/12/02 04:30:03;;;;;;;5.27;0.90;;;4.30;99.90;;;;;;5113528;28;20445;-57
2021/12/02 04:32:31;;;;;;;0.80;0.50;;;4.30;99.90;;;;;;5113685;28;20458;-57
2021/12/02 04:34:58;;;;;;;1.57;0.90;;;4.30;99.90;;;;;;5113137;28;20477;-57
2021/12/02 04:37:25;;;;;;;0.80;0.60;;;4.30;99.90;;;;;;5113419;28;20437;-57
2021/12/02 04:39:51;;;;;;;0.87;0.50;;;4.20;99.90;;;;;;5113850;28;20437;-58
2021/12/02 04:42:18;;;;;;;1.57;0.70;;;4.20;99.90;;;;;;5113792;28;20451;-58
2021/12/02 04:44:46;;;;;;;1.20;0.73;;;4.20;99.90;;;;;;5113407;28;20453;-55
2021/12/02 04:47:16;;;;;;;0.90;0.60;;;4.20;99.90;;;;;;5113519;28;20451;-57
2021/12/02 04:49:44;;;;;;;0.80;0.50;;;4.10;99.90;;;;;;5112804;28;20479;-58
2021/12/02 04:52:11;;;;;;;0.83;0.60;;;4.10;99.90;;;;;;5113726;28;20441;-57
2021/12/02 04:54:38;;;;;;;0.90;0.60;;;4.10;99.90;;;;;;5113397;28;20477;-57
2021/12/02 04:57:05;;;;;;;0.90;0.53;;;4.10;99.90;;;;;;5113889;28;20465;-52
2021/12/02 04:59:32;;;;;;;1.23;0.60;;;4.10;99.90;;;;;;5117912;28;20437;-56
2021/12/02 05:02:01;;;;;;;0.80;0.50;;;4.10;99.90;;;;;;5117786;28;20461;-56
2021/12/02 05:04:28;;;;;;;0.87;0.70;;;4.00;99.90;;;;;;5117675;28;20498;-57
2021/12/02 05:06:56;;;;;;;0.80;0.50;;;4.00;99.90;;;;;;5117878;28;20688;-58
2021/12/02 05:09:23;;;;;;;0.80;0.50;;;4.00;99.90;;;;;;5117915;28;20469;-52
2021/12/02 05:11:50;;;;;;;0.80;0.60;;;3.90;99.90;;;;;;5117443;28;20436;-55
2021/12/02 05:14:16;;;;;;;0.80;0.50;;;4.00;99.90;;;;;;5117648;28;20492;-54
2021/12/02 05:16:43;;;;;;;1.07;0.60;;;3.90;99.90;;;;;;5117652;28;20499;-57
2021/12/02 05:19:10;;;;;;;0.80;0.50;;;3.90;99.90;;;;;;5118107;28;20457;-58
2021/12/02 05:21:37;;;;;;;3.23;0.93;;;3.90;99.90;;;;;;5118174;28;20534;-56
2021/12/02 05:24:05;;;;;;;0.80;0.50;;;3.90;99.90;;;;;;5118252;28;20442;-61
2021/12/02 05:26:32;;;;;;;0.80;0.50;;;3.80;99.90;;;;;;5117649;28;20438;-55
2021/12/02 05:28:59;;;;;;;0.80;0.50;;;3.80;99.90;;;;;;5118506;28;20456;-51
2021/12/02 05:31:27;;;;;;;0.80;0.50;;;3.80;99.90;;;;;;5117598;28;20453;-55
2021/12/02 05:33:53;;;;;;;0.80;0.50;;;3.80;99.90;;;;;;5117607;28;20477;-55
2021/12/02 05:36:22;;;;;;;0.80;0.50;;;3.80;99.90;;;;;;5117472;28;20449;-56
2021/12/02 05:38:49;;;;;;;1.53;0.80;;;3.80;99.90;;;;;;5117445;28;20441;-60
2021/12/02 05:41:17;;;;;;;2.00;0.67;;;3.80;99.90;;;;;;5116973;28;20425;-59
2021/12/02 05:43:44;;;;;;;0.90;0.50;;;3.80;99.90;;;;;;5117485;28;20443;-58
2021/12/02 05:46:11;;;;;;;0.80;0.60;;;3.70;99.90;;;;;;5117100;28;20491;-58
2021/12/02 05:48:40;;;;;;;0.80;0.60;;;3.70;99.90;;;;;;5116804;28;20425;-58
2021/12/02 05:51:07;;;;;;;0.90;0.60;;;3.80;99.90;;;;;;5116673;28;20471;-57
2021/12/02 05:53:36;;;;;;;4.30;0.97;;;3.80;99.90;;;;;;5116147;28;20461;-58
2021/12/02 05:56:03;;;;;;;4.80;0.60;;;3.80;99.90;;;;;;5116131;28;20479;-58
2021/12/02 05:58:31;;;;;;;0.90;0.60;;;3.80;99.90;;;;;;5116202;28;20487;-60
2021/12/02 06:01:00;;;;;;;1.20;1.03;;;3.90;99.90;;;;;;5116228;28;20487;-57
2021/12/02 06:03:30;;;;;;;0.90;0.60;;;3.80;99.90;;;;;;5116251;28;20453;-56
2021/12/02 06:05:58;;;;;;;0.90;0.70;;;3.80;99.90;;;;;;5116532;28;20413;-56
2021/12/02 06:08:24;;;;;;;1.53;0.70;;;3.90;99.90;;;;;;5115854;28;20453;-57
2021/12/02 06:10:51;;;;;;;0.90;0.60;;;3.90;99.90;;;;;;5114499;28;20457;-56
2021/12/02 06:13:19;;;;;;;1.13;0.60;;;3.80;99.90;;;;;;5116474;28;20413;-56
2021/12/02 06:15:48;;;;;;;0.80;0.57;;;3.70;99.90;;;;;;5116807;28;20465;-59
2021/12/02 06:18:14;;;;;;;6.93;1.17;;;3.80;99.90;;;;;;5116930;28;20437;-58
2021/12/02 06:20:41;;;;;;;1.50;1.00;;;3.80;99.90;;;;;;5115720;28;20438;-58
2021/12/02 06:23:07;;;;;;;0.80;0.60;;;3.70;99.90;;;;;;5115807;28;20446;-58
2021/12/02 06:25:47;;;;;;;0.90;0.63;;;3.80;99.90;;;;;;5115153;28;20483;-61
2021/12/02 06:28:15;;;;;;;0.80;0.60;;;3.80;99.90;;;;;;5115101;28;20479;-59
2021/12/02 06:30:42;;;;;;;1.60;0.67;;;3.80;99.90;;;;;;5116161;28;20442;-59
2021/12/02 06:33:10;;;;;;;3.33;1.47;;;3.80;99.90;;;;;;5116292;28;20454;-54
2021/12/02 06:35:37;;;;;;;0.80;0.60;;;3.70;99.90;;;;;;5116598;28;20484;-58
2021/12/02 06:38:04;;;;;;;1.20;0.60;;;3.70;99.90;;;;;;5116085;28;20433;-56
2021/12/02 06:40:31;;;;;;;0.80;0.50;;;3.60;99.90;;;;;;5115282;28;20461;-57
2021/12/02 06:42:58;;;;;;;0.90;0.60;;;3.70;99.90;;;;;;5115118;28;20457;-56
2021/12/02 06:45:25;;;;;;;0.80;0.60;;;3.60;99.90;;;;;;5115541;28;20418;-56
2021/12/02 06:47:54;;;;;;;1.10;0.93;;;3.60;99.90;;;;;;5115154;28;20430;-58
2021/12/02 06:50:22;;;;;;;0.80;0.50;;;3.60;99.90;;;;;;5115138;28;20445;-56
2021/12/02 06:52:50;;;;;;;1.47;0.70;;;3.60;99.90;;;;;;5115099;28;20461;-55
2021/12/02 06:55:17;;;;;;;0.83;0.60;;;3.60;99.90;;;;;;5115218;28;20657;-59
2021/12/02 06:57:44;;;;;;;1.20;0.70;;;3.60;99.90;;;;;;5114346;28;20433;-57
2021/12/02 07:00:15;;;;;;;0.80;0.50;;;3.60;99.90;;;;;;5118382;28;20464;-56
2021/12/02 07:02:42;;;;;;;1.00;0.70;;;3.60;99.90;;;;;;5117927;28;20440;-54
2021/12/02 07:05:12;;;;;;;0.90;0.60;;;3.60;99.90;;;;;;5117568;28;20477;-53
2021/12/02 07:07:40;;;;;;;0.80;0.50;;;3.50;99.90;;;;;;5117477;28;20468;-56
2021/12/02 07:10:09;;;;;;;0.80;0.60;;;3.40;99.90;;;;;;5117617;28;20494;-56
2021/12/02 07:12:39;;;;;;;1.40;0.70;;;3.40;99.90;;;;;;5117573;28;20493;-50
2021/12/02 07:15:10;;;;;;;0.80;0.50;;;3.40;99.90;;;;;;5117127;28;20459;-57
2021/12/02 07:17:37;;;;;;;1.43;0.80;;;3.40;99.90;;;;;;5117323;28;20430;-55
2021/12/02 07:20:05;;;;;;;3.20;1.13;;;3.40;99.90;;;;;;5116757;28;20435;-58
2021/12/02 07:22:32;;;;;;;1.33;0.90;;;3.30;99.90;;;;;;5116535;28;20469;-54
2021/12/02 07:25:00;;;;;;;0.87;0.53;;;3.40;99.90;;;;;;5116373;28;20468;-50
2021/12/02 07:27:27;;;;;;;0.83;0.50;;;3.40;99.90;;;;;;5116487;28;20441;-56
2021/12/02 07:29:53;;;;;;;0.80;0.50;;;3.40;99.90;;;;;;5111777;28;20510;-56
2021/12/02 07:32:21;;;;;;;0.80;0.50;;;3.40;99.90;;;;;;5114915;28;20504;-58
2021/12/02 07:34:50;;;;;;;1.30;0.83;;;3.40;99.90;;;;;;5115648;28;20478;-57
2021/12/02 07:37:17;;;;;;;5.43;0.77;;;4.00;99.90;;;;;;5115854;28;20422;-53
2021/12/02 07:39:45;;;;;;;1.77;0.70;;;3.80;99.90;;;;;;5115828;28;20441;-56
2021/12/02 07:42:18;;;;;;;0.90;0.80;;;3.70;99.90;;;;;;5116062;28;20430;-56
2021/12/02 07:44:45;;;;;;;0.80;0.53;;;3.60;99.90;;;;;;5116055;28;20433;-58
2021/12/02 07:47:13;;;;;;;1.00;0.60;;;3.40;99.90;;;;;;5115402;28;20449;-53
2021/12/02 07:49:41;;;;;;;0.90;0.60;;;3.30;99.90;;;;;;5116748;28;20481;-55
2021/12/02 07:52:11;;;;;;;0.80;0.50;;;3.40;99.90;;;;;;5116145;28;20461;-55
2021/12/02 07:54:39;;;;;;;0.90;0.77;;;3.40;99.90;;;;;;5115426;28;20445;-57
2021/12/02 07:57:15;;;;;;;2.17;0.73;;;3.40;99.90;;;;;;5114448;28;20475;-57
2021/12/02 07:59:43;;;;;;;0.80;0.70;;;3.40;99.90;;;;;;5113614;28;20441;-55
2021/12/02 08:02:14;;;;;;;1.17;0.70;;;3.40;99.90;;;;;;5112968;28;20440;-59
2021/12/02 08:04:40;;;;;;;0.80;0.57;;;3.40;99.90;;;;;;5113372;28;20455;-56
2021/12/02 08:07:07;;;;;;;0.93;0.73;;;3.40;99.90;;;;;;5112300;28;20503;-57
2021/12/02 08:09:34;;;;;;;7.33;0.93;;;3.40;99.90;;;;;;5112727;28;20491;-58
2021/12/02 08:12:02;;;;;;;1.40;0.80;;;3.40;99.90;;;;;;5113081;28;20437;-57
2021/12/02 08:14:29;;;;;;;0.80;0.60;;;3.40;99.90;;;;;;5112276;28;20882;-59
2021/12/02 08:16:57;;;;;;;0.90;0.60;;;3.40;99.90;;;;;;5112687;28;20444;-58
2021/12/02 08:19:24;;;;;;;1.00;0.90;;;3.40;99.90;;;;;;5112232;28;20495;-58
2021/12/02 08:21:51;;;;;;;1.57;0.70;;;3.40;99.90;;;;;;5112495;28;20441;-58
2021/12/02 08:24:21;;;;;;;1.53;1.43;;;3.40;99.90;;;;;;5078631;28;997093;-60
2021/12/02 08:26:49;;;;;;;2.00;0.80;;;3.30;99.90;;;;;;5114278;28;20249;-59
2021/12/02 08:29:15;;;;;;;0.83;0.60;;;3.30;99.90;;;;;;5113723;28;20476;-59
2021/12/02 08:31:44;;;;;;;0.80;0.60;;;3.20;99.90;;;;;;5112547;28;20461;-58
2021/12/02 08:34:13;;;;;;;3.23;0.77;;;3.20;99.90;;;;;;5112523;28;20495;-58
2021/12/02 08:36:45;;;;;;;1.00;0.60;;;3.30;99.90;;;;;;5113388;28;20452;-57
2021/12/02 08:39:17;;;;;;;2.10;0.70;;;3.30;99.90;;;;;;5113246;28;20449;-58
2021/12/02 08:41:47;;;;;;;1.00;0.80;;;3.30;99.90;;;;;;5112533;28;20459;-56
2021/12/02 08:44:14;;;;;;;1.63;0.70;;;3.30;99.90;;;;;;5112162;28;20444;-56
2021/12/02 08:46:41;;;;;;;0.90;0.60;;;3.30;99.90;;;;;;5113121;28;20509;-59
2021/12/02 08:49:07;;;;;;;2.13;1.97;;;3.30;99.90;;;;;;5113326;28;20487;-57
2021/12/02 08:51:36;;;;;;;1.00;0.63;;;3.30;99.90;;;;;;5114309;28;20926;-59
2021/12/02 08:54:03;;;;;;;0.80;0.60;;;3.30;99.90;;;;;;5112235;28;20460;-56
2021/12/02 08:56:30;;;;;;;0.90;0.60;;;3.30;99.90;;;;;;5113402;28;20443;-55
2021/12/02 08:58:56;;;;;;;0.80;0.60;;;3.30;99.90;;;;;;5112769;28;20438;-58
2021/12/02 09:01:25;;;;;;;0.90;0.60;;;3.30;99.90;;;;;;5111320;28;20913;-57
2021/12/02 09:03:51;;;;;;;1.40;0.70;;;3.30;99.90;;;;;;5110937;28;20453;-58
2021/12/02 09:06:22;;;;;;;1.10;0.60;;;3.30;99.90;;;;;;5112535;28;20931;-57
2021/12/02 09:08:53;;;;;;;1.17;0.60;;;3.40;99.90;;;;;;5112599;28;20445;-59
2021/12/02 09:11:20;;;;;;;0.87;0.60;;;3.30;99.90;;;;;;5112520;28;20466;-59
2021/12/02 09:13:47;;;;;;;1.53;0.67;;;3.30;99.90;;;;;;5111447;28;20449;-59
2021/12/02 09:16:18;;;;;;;0.80;0.60;;;3.30;99.90;;;;;;5111195;28;20536;-59
2021/12/02 09:18:45;;;;;;;1.50;0.90;;;3.30;99.90;;;;;;5112578;28;20450;-58
2021/12/02 09:21:11;;;;;;;1.20;0.70;;;3.30;99.90;;;;;;5113920;28;20430;-56
2021/12/02 09:23:41;;;;;;;1.13;0.60;;;3.40;99.90;;;;;;5113714;28;20446;-57
2021/12/02 09:26:09;;;;;;;1.67;0.70;;;3.80;99.90;;;;;;5115413;28;20460;-54
2021/12/02 09:28:36;;;;;;;0.80;0.60;;;4.30;99.90;;;;;;5115066;28;20533;-55
2021/12/02 09:31:03;;;;;;;0.90;0.60;;;4.30;99.90;;;;;;5115190;28;20461;-56
2021/12/02 09:33:30;;;;;;;1.00;0.70;;;4.40;99.90;;;;;;5107262;28;20952;-53
2021/12/02 09:35:56;;;;;;;0.90;0.60;;;4.40;99.90;;;;;;5115558;28;20473;-56
2021/12/02 09:38:23;;;;;;;7.70;0.70;;;4.50;99.90;;;;;;5115505;28;20467;-55
2021/12/02 09:40:50;;;;;;;3.83;0.80;;;4.40;99.90;;;;;;5114891;28;20437;-57
2021/12/02 09:43:18;;;;;;;0.90;0.60;;;4.70;99.90;;;;;;5115258;28;20437;-55
2021/12/02 09:45:45;;;;;;;1.33;0.70;;;4.90;99.90;;;;;;5119433;28;20449;-59
2021/12/02 09:48:12;;;;;;;1.07;0.60;;;4.70;99.90;;;;;;5119485;28;20479;-56
2021/12/02 09:50:50;;;;;;;1.93;0.87;;;4.50;99.90;;;;;;5119179;28;20453;-54
2021/12/02 09:53:20;;;;;;;1.70;0.87;;;4.60;99.90;;;;;;5117894;28;20484;-53
2021/12/02 09:55:51;;;;;;;0.90;0.60;;;5.00;99.90;;;;;;5116769;28;20469;-58
2021/12/02 09:58:23;;;;;;;0.87;0.60;;;5.30;99.90;;;;;;5117092;28;20854;-56
2021/12/02 10:00:56;;;;;;;1.63;0.70;;;5.60;99.90;;;;;;5117848;28;20436;-56
2021/12/02 10:03:29;;;;;;;1.63;0.60;;;5.80;99.90;;;;;;5118635;28;20428;-56
2021/12/02 10:06:03;;;;;;;0.90;0.50;;;5.90;99.90;;;;;;5118392;28;20418;-57
2021/12/02 10:08:38;;;;;;;0.90;0.60;;;6.20;99.90;;;;;;5116132;28;20445;-56
2021/12/02 10:11:07;;;;;;;0.90;0.60;;;6.90;99.90;;;;;;5116276;28;20507;-58
2021/12/02 10:13:43;;;;;;;1.13;0.80;;;7.30;99.90;;;;;;5115958;28;20470;-58
2021/12/02 10:16:16;;;;;;;2.00;0.80;;;7.30;99.90;;;;;;5114876;28;20457;-55
2021/12/02 10:18:55;;;;;;;1.97;0.80;;;7.20;99.90;;;;;;5115216;28;20465;-56
2021/12/02 10:21:27;;;;;;;1.37;0.70;;;7.00;99.90;;;;;;5115865;28;20409;-58
2021/12/02 10:23:54;;;;;;;1.47;0.83;;;6.50;99.90;;;;;;5116014;28;20482;-59
2021/12/02 10:26:22;;;;;;;1.30;0.80;;;6.00;99.90;;;;;;5115674;28;20413;-59
2021/12/02 10:28:53;;;;;;;1.40;0.70;;;5.70;99.90;;;;;;5116014;28;20464;-57
2021/12/02 10:31:23;;;;;;;1.13;0.70;;;5.50;99.90;;;;;;5117049;28;20428;-58
2021/12/02 10:33:57;;;;;;;0.80;0.60;;;5.20;99.90;;;;;;5117700;28;20474;-55
2021/12/02 10:36:31;;;;;;;1.00;0.63;;;4.90;99.90;;;;;;5117676;28;20454;-59
2021/12/02 10:39:08;;;;;;;1.57;1.07;;;4.60;99.90;;;;;;5117683;28;20426;-56
2021/12/02 10:41:35;;;;;;;2.20;1.00;;;4.40;99.90;;;;;;5117934;28;20495;-55
2021/12/02 10:44:19;;;;;;;1.13;0.60;;;4.30;99.90;;;;;;5117928;28;20471;-57
2021/12/02 10:47:01;;;;;;;0.83;0.50;;;4.20;99.90;;;;;;5118181;28;20445;-55
2021/12/02 10:49:29;;;;;;;2.63;1.17;;;4.20;99.90;;;;;;5117419;28;20505;-57
2021/12/02 10:51:57;;;;;;;1.10;0.60;;;4.10;99.90;;;;;;5117401;28;20802;-58
2021/12/02 10:54:27;;;;;;;0.90;0.60;;;4.00;99.90;;;;;;5117761;28;20444;-57
2021/12/02 10:56:55;;;;;;;6.40;3.07;;;4.00;99.90;;;;;;5116440;28;20473;-57
2021/12/02 10:59:32;;;;;;;1.20;1.00;;;4.00;99.90;;;;;;5117118;28;20436;-58
2021/12/02 11:02:02;;;;;;;2.80;0.90;;;4.10;99.90;;;;;;5117449;28;20461;-54
2021/12/02 11:04:36;;;;;;;2.67;1.00;;;4.00;99.90;;;;;;5116724;28;20533;-57
2021/12/02 11:07:09;;;;;;;0.80;0.50;;;4.00;99.90;;;;;;5113741;28;20425;-59
2021/12/02 11:09:37;;;;;;;1.80;1.60;;;3.90;99.90;;;;;;5113411;28;20469;-53
2021/12/02 11:12:17;;;;;;;1.73;1.27;;;3.90;99.90;;;;;;5112795;28;20437;-53
2021/12/02 11:15:08;;;;;;;0.80;0.60;;;3.90;99.90;;;;;;5114697;28;20480;-56
2021/12/02 11:17:47;;;;;;;1.50;1.17;;;4.00;99.90;;;;;;5110072;28;20473;-54
2021/12/02 11:20:18;;;;;;;0.90;0.70;;;4.00;99.90;;;;;;5114600;28;20485;-55
2021/12/02 11:22:45;;;;;;;1.17;0.60;;;4.00;99.90;;;;;;5116989;28;20449;-51
2021/12/02 11:25:15;;;;;;;1.73;1.00;;;3.90;99.90;;;;;;5117481;28;20442;-55
2021/12/02 11:27:45;;;;;;;9.13;1.23;;;4.00;99.90;;;;;;5116844;28;20444;-53
2021/12/02 11:30:17;;;;;;;0.90;0.60;;;4.00;99.90;;;;;;5112301;28;20443;-55
2021/12/02 11:32:56;;;;;;;3.10;1.40;;;4.00;99.90;;;;;;5117364;28;20448;-56
2021/12/02 11:35:31;;;;;;;2.60;0.90;;;4.00;99.90;;;;;;5115469;28;20480;-55
2021/12/02 11:38:03;;;;;;;0.80;0.50;;;4.00;99.90;;;;;;5116942;28;20425;-53
2021/12/02 11:40:31;;;;;;;1.10;0.70;;;4.00;99.90;;;;;;5115674;28;20429;-57
2021/12/02 11:43:01;;;;;;;0.80;0.60;;;3.90;99.90;;;;;;5116935;28;20476;-53
2021/12/02 11:45:31;;;;;;;14.13;1.13;;;3.90;99.90;;;;;;5116888;28;20448;-55
2021/12/02 11:47:59;;;;;;;1.10;0.70;;;4.00;99.90;;;;;;5114782;28;20466;-55
2021/12/02 11:50:28;;;;;;;1.93;0.97;;;4.00;99.90;;;;;;5092488;28;20431;-55
2021/12/02 11:52:56;;;;;;;1.20;0.80;;;4.10;99.90;;;;;;5087861;28;20449;-58
2021/12/02 11:55:28;;;;;;;0.90;0.60;;;4.10;99.90;;;;;;5090824;28;20508;-58
2021/12/02 11:57:59;;;;;;;0.90;0.60;;;4.90;99.90;;;;;;5090510;28;20441;-53
2021/12/02 12:00:27;;;;;;;16.90;2.13;;;5.20;99.90;;;;;;5112723;28;20914;-49
2021/12/02 12:03:00;;;;;;;1.27;0.80;;;5.00;99.90;;;;;;5114068;28;20437;-52
2021/12/02 12:05:30;;;;;;;0.90;0.50;;;4.80;99.90;;;;;;5112941;28;20457;-54
2021/12/02 12:07:57;;;;;;;1.23;0.80;;;4.80;99.90;;;;;;5111733;28;20452;-47
2021/12/02 12:10:31;;;;;;;0.80;0.50;;;4.70;99.90;;;;;;5112205;28;20483;-48
2021/12/02 12:13:13;;;;;;;1.13;0.60;;;4.60;99.90;;;;;;5112166;28;20432;-50
2021/12/02 12:15:42;;;;;;;2.63;1.20;;;4.60;99.90;;;;;;5114817;28;20465;-49
2021/12/02 12:18:12;;;;;;;0.90;0.60;;;4.50;99.90;;;;;;5114765;28;20402;-52
2021/12/02 12:20:57;;;;;;;0.90;0.60;;;4.40;99.90;;;;;;5115107;28;20455;-50
2021/12/02 12:23:46;;;;;;;6.77;1.20;;;4.40;99.90;;;;;;5113781;28;20425;-50
2021/12/02 12:26:22;;;;;;;3.17;1.20;;;4.40;99.90;;;;;;5113739;28;20422;-51
2021/12/02 12:29:33;;;;;;;3.73;0.80;;;4.40;99.90;;;;;;5112431;28;20465;-53
2021/12/02 12:32:25;;;;;;;1.47;0.60;;;4.40;99.90;;;;;;5112833;28;20418;-52
2021/12/02 12:35:01;;;;;;;1.40;0.70;;;4.30;99.90;;;;;;5106830;28;20504;-54
2021/12/02 12:37:48;;;;;;;0.80;0.50;;;4.30;99.90;;;;;;5112196;28;20453;-52
2021/12/02 12:40:21;;;;;;;1.10;0.70;;;4.30;99.90;;;;;;5112673;28;20426;-50
2021/12/02 12:42:50;;;;;;;1.13;0.60;;;4.40;99.90;;;;;;5112706;28;20501;-52
2021/12/02 12:45:28;;;;;;;1.00;0.60;;;4.40;99.90;;;;;;5112532;28;20469;-49
2021/12/02 12:47:58;;;;;;;1.00;0.80;;;4.40;99.90;;;;;;5112653;28;20437;-53
2021/12/02 12:50:34;;;;;;;1.10;0.60;;;4.30;99.90;;;;;;5111438;28;20480;-49
2021/12/02 12:53:20;;;;;;;1.03;0.60;;;4.30;99.90;;;;;;5110905;28;20417;-52
2021/12/02 12:56:04;;;;;;;2.50;1.20;;;4.40;99.90;;;;;;5110555;28;20485;-55
2021/12/02 12:58:32;;;;;;;1.73;0.67;;;4.40;99.90;;;;;;5110000;28;20418;-50
2021/12/02 13:01:00;;;;;;;1.20;0.80;;;4.50;99.90;;;;;;5110840;28;20466;-53
2021/12/02 13:03:30;;;;;;;1.00;0.80;;;4.50;99.90;;;;;;5111825;28;20445;-51
2021/12/02 13:06:03;;;;;;;2.10;0.60;;;4.50;99.90;;;;;;5110502;28;20446;-51
2021/12/02 13:08:35;;;;;;;1.10;0.80;;;4.50;99.90;;;;;;5108811;28;20793;-54
2021/12/02 13:11:11;;;;;;;1.10;0.77;;;4.60;99.90;;;;;;5108536;28;20430;-50
2021/12/02 13:13:40;;;;;;;1.43;1.00;;;4.70;99.90;;;;;;5109080;28;20433;-49